createdAt,value
2024-01-20T00:00:15.905Z,7.50
2024-01-20T00:02:45.101Z,6.20
2024-01-20T00:05:14.194Z,5.32
2024-01-20T00:07:44.272Z,5.90
2024-01-20T00:10:14.428Z,4.88
2024-01-20T00:12:43.850Z,5.45
2024-01-20T00:15:14.583Z,6.22
2024-01-20T00:17:43.983Z,5.70
2024-01-20T00:20:13.567Z,5.53
2024-01-20T00:22:42.172Z,5.13
2024-01-20T00:25:11.487Z,5.90
2024-01-20T00:27:40.868Z,5.53
2024-01-20T00:30:09.712Z,5.32
2024-01-20T00:32:39.737Z,5.85
2024-01-20T00:35:08.979Z,5.28
2024-01-20T00:37:38.056Z,5.32
2024-01-20T00:40:09.837Z,5.82
2024-01-20T00:42:38.165Z,6.03
2024-01-20T00:45:07.180Z,5.68
2024-01-20T00:47:39.410Z,5.22
2024-01-20T00:50:10.099Z,4.78
2024-01-20T00:52:38.780Z,5.80
2024-01-20T00:55:07.791Z,5.72
2024-01-20T00:57:36.151Z,5.22
2024-01-20T01:00:10.720Z,5.28
2024-01-20T01:02:39.141Z,5.88
2024-01-20T01:05:08.215Z,5.22
2024-01-20T01:07:38.362Z,6.18
2024-01-20T01:10:07.898Z,5.03
2024-01-20T01:12:36.451Z,6.38
2024-01-20T01:15:05.449Z,5.00
2024-01-20T01:17:34.321Z,5.10
2024-01-20T01:20:02.946Z,5.10
2024-01-20T01:22:31.704Z,6.25
2024-01-20T01:25:01.474Z,5.93
2024-01-20T01:27:29.953Z,5.65
2024-01-20T01:29:58.312Z,6.00
2024-01-20T01:32:26.932Z,5.18
2024-01-20T01:34:55.384Z,5.65
2024-01-20T01:37:23.864Z,6.38
2024-01-20T01:39:51.308Z,5.60
2024-01-20T01:42:20.949Z,5.10
2024-01-20T01:44:49.298Z,5.40
2024-01-20T01:47:17.672Z,5.60
2024-01-20T01:49:46.218Z,5.18
2024-01-20T01:52:15.034Z,5.03
2024-01-20T01:54:43.493Z,5.65
2024-01-20T01:57:11.942Z,6.32
2024-01-20T01:59:42.732Z,6.18
2024-01-20T02:02:11.612Z,5.63
2024-01-20T02:04:40.298Z,4.95
2024-01-20T02:07:09.069Z,6.70
2024-01-20T02:09:37.411Z,5.43
2024-01-20T02:12:06.091Z,6.20
2024-01-20T02:14:34.821Z,6.50
2024-01-20T02:17:07.888Z,6.15
2024-01-20T02:19:39.745Z,5.32
2024-01-20T02:22:13.036Z,5.60
2024-01-20T02:24:41.708Z,6.55
2024-01-20T02:27:10.693Z,6.05
2024-01-20T02:29:40.650Z,6.97
2024-01-20T02:32:09.090Z,7.00
2024-01-20T02:34:38.771Z,5.05
2024-01-20T02:37:08.487Z,4.57
2024-01-20T02:39:38.507Z,5.68
2024-01-20T02:42:09.705Z,4.35
2024-01-20T02:44:38.209Z,4.72
2024-01-20T02:47:06.958Z,4.60
2024-01-20T02:49:35.702Z,4.38
2024-01-20T02:52:04.837Z,5.15
2024-01-20T02:54:33.290Z,4.80
2024-01-20T02:57:03.181Z,4.85
2024-01-20T02:59:31.547Z,5.25
2024-01-20T03:01:59.927Z,5.35
2024-01-20T03:04:28.357Z,5.28
2024-01-20T03:06:56.737Z,4.60
2024-01-20T03:09:25.157Z,4.55
2024-01-20T03:11:53.568Z,4.65
2024-01-20T03:14:23.244Z,4.65
2024-01-20T03:16:51.620Z,4.70
2024-01-20T03:19:20.037Z,4.20
2024-01-20T03:21:48.502Z,5.15
2024-01-20T03:24:20.208Z,4.35
2024-01-20T03:26:50.329Z,5.15
2024-01-20T03:29:19.644Z,4.90
2024-01-20T03:31:49.305Z,5.38
2024-01-20T03:34:17.751Z,4.72
2024-01-20T03:36:47.240Z,4.32
2024-01-20T03:39:15.576Z,4.85
2024-01-20T03:41:43.938Z,4.85
2024-01-20T03:44:12.324Z,4.18
2024-01-20T03:46:40.647Z,4.88
2024-01-20T03:49:10.510Z,5.70
2024-01-20T03:51:39.186Z,5.00
2024-01-20T03:54:07.795Z,5.07
2024-01-20T03:56:36.212Z,5.35
2024-01-20T03:59:04.788Z,5.93
2024-01-20T04:01:33.119Z,5.43
2024-01-20T04:04:01.629Z,5.97
2024-01-20T04:06:33.094Z,5.30
2024-01-20T04:09:01.574Z,6.18
2024-01-20T04:11:30.024Z,5.90
2024-01-20T04:13:58.383Z,6.05
2024-01-20T04:16:26.820Z,6.93
2024-01-20T04:18:55.279Z,6.07
2024-01-20T04:21:25.060Z,5.85
2024-01-20T04:23:54.855Z,4.88
2024-01-20T04:26:23.226Z,6.68
2024-01-20T04:28:51.620Z,7.18
2024-01-20T04:31:20.023Z,5.47
2024-01-20T04:33:48.455Z,6.20
2024-01-20T04:36:17.111Z,6.93
2024-01-20T04:38:45.978Z,6.13
2024-01-20T04:41:15.676Z,5.68
2024-01-20T04:43:44.109Z,5.70
2024-01-20T04:46:12.521Z,5.82
2024-01-20T04:48:40.944Z,6.18
2024-01-20T04:51:10.712Z,5.75
2024-01-20T04:53:39.077Z,6.07
2024-01-20T04:56:07.756Z,5.78
2024-01-20T04:58:37.712Z,5.75
2024-01-20T05:01:06.625Z,5.50
2024-01-20T05:03:35.028Z,5.45
2024-01-20T05:06:04.178Z,6.30
2024-01-20T05:08:32.741Z,6.03
2024-01-20T05:11:01.153Z,5.15
2024-01-20T05:13:29.482Z,6.47
2024-01-20T05:15:59.180Z,6.28
2024-01-20T05:18:27.795Z,6.05
2024-01-20T05:20:56.322Z,7.22
2024-01-20T05:23:24.661Z,6.00
2024-01-20T05:25:53.016Z,6.68
2024-01-20T05:28:21.458Z,6.32
2024-01-20T05:30:50.236Z,6.22
2024-01-20T05:33:20.025Z,6.20
2024-01-20T05:35:48.479Z,6.43
2024-01-20T05:38:16.862Z,5.65
2024-01-20T05:40:46.209Z,5.95
2024-01-20T05:43:14.613Z,5.75
2024-01-20T05:45:43.058Z,5.75
2024-01-20T05:48:11.897Z,5.53
2024-01-20T05:50:41.687Z,6.40
2024-01-20T05:53:10.112Z,6.40
2024-01-20T05:55:38.474Z,6.60
2024-01-20T05:58:06.941Z,6.35
2024-01-20T06:00:35.408Z,5.95
2024-01-20T06:03:03.923Z,6.65
2024-01-20T06:05:32.482Z,6.57
2024-01-20T06:08:02.155Z,6.03
2024-01-20T06:10:30.555Z,6.35
2024-01-20T06:12:58.872Z,6.03
2024-01-20T06:15:27.317Z,6.75
2024-01-20T06:17:55.645Z,6.65
2024-01-20T06:20:24.006Z,6.15
2024-01-20T06:22:52.369Z,6.07
2024-01-20T06:25:22.027Z,7.22
2024-01-20T06:27:50.363Z,6.95
2024-01-20T06:30:19.332Z,6.97
2024-01-20T06:32:47.748Z,6.47
2024-01-20T06:35:16.943Z,7.78
2024-01-20T06:37:45.368Z,6.45
2024-01-20T06:40:14.060Z,7.18
2024-01-20T06:42:43.859Z,10.10
2024-01-20T06:45:12.361Z,10.25
2024-01-20T06:47:40.910Z,10.43
2024-01-20T06:50:09.885Z,6.45
2024-01-20T06:52:38.203Z,7.07
2024-01-20T06:55:07.772Z,7.13
2024-01-20T06:57:36.161Z,7.20
2024-01-20T07:00:08.973Z,6.45
2024-01-20T07:02:37.376Z,7.68
2024-01-20T07:05:06.550Z,6.35
2024-01-20T07:07:35.001Z,6.35
2024-01-20T07:10:03.462Z,6.78
2024-01-20T07:12:32.017Z,9.98
2024-01-20T07:15:00.984Z,10.02
2024-01-20T07:17:30.989Z,10.07
2024-01-20T07:19:59.420Z,7.18
2024-01-20T07:22:27.806Z,10.35
2024-01-20T07:24:56.224Z,7.85
2024-01-20T07:27:26.165Z,9.43
2024-01-20T07:29:54.550Z,6.68
2024-01-20T07:32:22.915Z,9.30
2024-01-20T07:34:52.666Z,6.72
2024-01-20T07:37:21.110Z,6.55
2024-01-20T07:39:51.105Z,8.20
2024-01-20T07:42:19.751Z,7.90
2024-01-20T07:44:49.940Z,7.60
2024-01-20T07:47:18.504Z,8.43
2024-01-20T07:49:46.883Z,9.68
2024-01-20T07:52:16.611Z,8.35
2024-01-20T07:54:45.023Z,7.78
2024-01-20T07:57:13.495Z,7.22
2024-01-20T07:59:41.791Z,7.28
2024-01-20T08:02:10.381Z,7.93
2024-01-20T08:04:38.822Z,7.43
2024-01-20T08:07:07.289Z,8.30
2024-01-20T08:09:37.178Z,9.77
2024-01-20T08:12:06.762Z,8.70
2024-01-20T08:14:35.114Z,8.40
2024-01-20T08:17:03.521Z,7.82
2024-01-20T08:19:32.104Z,7.82
2024-01-20T08:22:00.584Z,8.73
2024-01-20T08:24:28.995Z,7.80
2024-01-20T08:26:58.671Z,9.23
2024-01-20T08:29:37.583Z,7.22
2024-01-20T08:32:12.511Z,8.95
2024-01-20T08:35:06.792Z,8.77
2024-01-20T08:40:17.821Z,9.30
2024-01-20T08:43:07.301Z,8.27
2024-01-20T08:45:53.609Z,9.30
2024-01-20T08:48:35.737Z,7.57
2024-01-20T08:54:23.940Z,8.20
2024-01-20T08:57:01.885Z,8.45
2024-01-20T08:59:55.544Z,8.18
2024-01-20T09:05:54.274Z,9.57
2024-01-20T09:14:24.195Z,11.00
2024-01-20T09:17:20.233Z,8.50
2024-01-20T09:20:16.029Z,8.90
2024-01-20T09:23:09.893Z,8.02
2024-01-20T09:26:07.237Z,8.90
2024-01-20T09:31:27.708Z,6.63
2024-01-20T09:34:21.267Z,7.63
2024-01-20T09:40:06.038Z,7.03
2024-01-20T09:42:56.525Z,6.70
2024-01-20T09:46:08.023Z,7.20
2024-01-20T09:48:49.895Z,7.13
2024-01-20T09:51:56.042Z,7.72
2024-01-20T09:55:08.666Z,7.68
2024-01-20T09:58:06.676Z,7.28
2024-01-20T10:07:07.212Z,6.32
2024-01-20T10:10:10.538Z,8.70
2024-01-20T10:38:45.655Z,8.77
2024-01-20T10:41:23.025Z,6.70
2024-01-20T10:44:16.436Z,7.28
2024-01-20T10:46:59.226Z,6.80
2024-01-20T10:49:41.355Z,6.93
2024-01-20T10:55:35.741Z,7.35
2024-01-20T10:58:29.757Z,7.43
2024-01-20T11:01:03.130Z,7.03
2024-01-20T11:03:32.856Z,7.55
2024-01-20T11:06:03.075Z,8.82
2024-01-20T11:08:37.513Z,8.23
2024-01-20T11:14:05.140Z,7.05
2024-01-20T11:16:38.547Z,8.05
2024-01-20T11:19:19.218Z,7.28
2024-01-20T11:21:52.225Z,7.53
2024-01-20T11:24:41.552Z,8.68
2024-01-20T11:27:14.768Z,8.23
2024-01-20T11:30:02.794Z,8.38
2024-01-20T11:32:36.003Z,9.13
2024-01-20T11:35:14.383Z,9.23
2024-01-20T11:37:43.651Z,10.77
2024-01-20T11:40:25.003Z,8.65
2024-01-20T11:43:25.928Z,8.65
2024-01-20T11:46:07.841Z,9.43
2024-01-20T11:49:03.029Z,8.52
2024-01-20T11:51:56.847Z,8.48
2024-01-20T11:54:32.640Z,9.23
2024-01-20T11:57:59.843Z,8.18
2024-01-20T12:01:41.765Z,7.50
2024-01-20T12:04:24.340Z,7.55
2024-01-20T12:13:37.119Z,8.85
2024-01-20T13:20:07.957Z,9.65
2024-01-20T13:22:39.898Z,8.82
2024-01-20T13:25:12.111Z,8.98
2024-01-20T13:27:47.468Z,8.88
2024-01-20T13:30:25.765Z,9.20
2024-01-20T13:33:08.417Z,9.93
2024-01-20T13:35:39.829Z,8.35
2024-01-20T13:38:32.890Z,8.60
2024-01-20T13:41:16.698Z,9.55
2024-01-20T13:43:52.630Z,9.10
2024-01-20T13:46:48.351Z,8.93
2024-01-20T13:49:21.826Z,10.05
2024-01-20T13:51:54.231Z,9.80
2024-01-20T13:54:27.791Z,8.90
2024-01-20T13:59:50.370Z,9.32
2024-01-20T14:02:44.078Z,8.63
2024-01-20T18:16:18.876Z,8.52
2024-01-20T18:19:01.931Z,9.20
2024-01-20T18:21:35.313Z,11.48
2024-01-20T18:24:16.722Z,11.40
2024-01-20T18:26:52.066Z,9.63
2024-01-20T18:29:31.772Z,8.32
2024-01-20T18:32:09.111Z,8.18
2024-01-20T18:34:44.269Z,8.75
2024-01-20T18:37:27.698Z,9.27
2024-01-20T18:43:01.558Z,9.23
2024-01-20T18:45:39.175Z,9.25
2024-01-20T18:48:23.547Z,8.63
2024-01-20T18:51:08.272Z,7.38
2024-01-20T18:53:44.152Z,8.93
2024-01-20T18:56:17.427Z,9.38
2024-01-20T18:59:00.494Z,8.23
2024-01-20T19:01:32.092Z,9.60
2024-01-20T19:04:04.419Z,9.07
2024-01-20T19:06:53.212Z,8.80
2024-01-20T19:09:38.207Z,9.60
2024-01-20T19:12:12.902Z,8.48
2024-01-20T19:14:45.471Z,8.65
2024-01-20T19:17:30.885Z,6.78
2024-01-20T19:20:29.772Z,7.75
2024-01-20T19:22:59.902Z,6.40
2024-01-20T19:25:31.164Z,7.40
2024-01-20T19:28:00.945Z,7.03
2024-01-20T19:30:29.696Z,8.18
2024-01-20T19:32:58.442Z,7.25
2024-01-20T19:35:29.882Z,8.50
2024-01-20T19:38:10.424Z,8.25
2024-01-20T19:40:49.486Z,6.75
2024-01-20T19:43:24.099Z,8.43
2024-01-20T19:45:57.958Z,9.05
2024-01-20T19:48:27.799Z,9.02
2024-01-20T19:51:05.671Z,8.43
2024-01-20T19:53:49.780Z,8.75
2024-01-20T19:56:18.198Z,8.50
2024-01-20T19:58:49.691Z,7.90
2024-01-20T20:01:24.563Z,9.75
2024-01-20T20:03:55.335Z,11.75
2024-01-20T20:06:29.431Z,13.35
2024-01-20T20:09:01.572Z,15.25
2024-01-20T20:11:38.332Z,14.18
2024-01-20T20:14:12.858Z,13.45
2024-01-20T20:16:45.372Z,11.65
2024-01-20T20:19:14.236Z,11.00
2024-01-20T20:21:42.965Z,11.68
2024-01-20T20:24:28.933Z,10.57
2024-01-20T20:27:03.543Z,11.27
2024-01-20T20:29:37.193Z,13.07
2024-01-20T20:32:08.457Z,12.75
2024-01-20T20:34:42.513Z,12.73
2024-01-20T20:37:23.400Z,14.80
2024-01-20T20:40:04.392Z,15.38
2024-01-20T20:42:34.625Z,13.50
2024-01-20T20:45:07.887Z,14.25
2024-01-20T20:47:36.733Z,12.57
2024-01-20T20:50:06.622Z,13.18
2024-01-20T20:52:35.522Z,14.10
2024-01-20T20:55:04.032Z,13.35
2024-01-20T20:57:34.954Z,12.70
2024-01-20T21:00:04.378Z,15.82
2024-01-20T21:02:32.938Z,13.85
2024-01-20T21:05:01.504Z,16.20
2024-01-20T21:07:31.834Z,17.40
2024-01-20T21:10:04.153Z,16.60
2024-01-20T21:12:34.071Z,13.55
2024-01-20T21:15:02.613Z,15.48
2024-01-20T21:17:59.476Z,15.05
2024-01-20T21:20:29.830Z,17.33
2024-01-20T21:23:01.019Z,16.02
2024-01-20T21:25:32.937Z,19.65
2024-01-20T21:28:06.872Z,32.05
2024-01-20T21:30:39.046Z,24.05
2024-01-20T21:33:14.563Z,20.85
2024-01-20T21:36:19.905Z,20.95
2024-01-20T21:38:48.431Z,19.15
2024-01-20T21:41:33.008Z,20.63
2024-01-20T21:44:04.311Z,17.48
2024-01-20T21:46:43.022Z,16.15
2024-01-20T21:49:17.878Z,16.05
2024-01-20T21:51:58.839Z,15.90
2024-01-20T21:54:38.220Z,15.50
2024-01-20T21:57:07.193Z,16.55
2024-01-20T21:59:50.874Z,15.90
2024-01-20T22:02:21.112Z,15.73
2024-01-20T22:04:52.855Z,14.77
2024-01-20T22:07:38.105Z,16.88
2024-01-20T22:10:15.376Z,16.33
2024-01-20T22:13:07.782Z,17.55
2024-01-20T22:15:38.319Z,20.17
2024-01-20T22:18:07.114Z,17.95
2024-01-20T22:20:36.225Z,19.38
2024-01-20T22:23:04.760Z,19.40
2024-01-20T22:25:33.232Z,18.63
2024-01-20T22:28:07.595Z,16.75
2024-01-20T22:30:40.313Z,15.10
2024-01-20T22:33:11.444Z,17.40
2024-01-20T22:35:40.065Z,14.45
2024-01-20T22:38:08.787Z,15.93
2024-01-20T22:40:37.334Z,14.35
2024-01-20T22:43:06.319Z,16.00
2024-01-20T22:45:37.768Z,14.43
2024-01-20T22:48:08.268Z,13.63
2024-01-20T22:50:36.913Z,13.95
2024-01-20T22:53:05.491Z,15.10
2024-01-20T22:55:33.954Z,13.50
2024-01-20T22:58:02.395Z,13.65
2024-01-20T23:00:31.027Z,13.55
2024-01-20T23:02:59.624Z,12.10
2024-01-20T23:05:32.682Z,12.93
2024-01-20T23:08:01.123Z,11.68
2024-01-20T23:10:30.565Z,14.52
2024-01-20T23:12:59.149Z,14.43
2024-01-20T23:15:27.706Z,16.38
2024-01-20T23:17:56.234Z,16.23
2024-01-20T23:20:23.970Z,11.98
2024-01-20T23:22:53.878Z,14.48
2024-01-20T23:25:22.394Z,14.50
2024-01-20T23:27:51.023Z,12.07
2024-01-20T23:30:21.171Z,13.77
2024-01-20T23:32:49.677Z,14.52
2024-01-20T23:35:18.197Z,15.88
2024-01-20T23:37:46.734Z,12.90
2024-01-20T23:40:16.838Z,12.57
2024-01-20T23:42:45.441Z,16.50
2024-01-20T23:45:14.836Z,16.30
2024-01-20T23:47:45.293Z,15.55
2024-01-20T23:50:23.966Z,14.85
2024-01-20T23:52:54.631Z,16.38
2024-01-20T23:55:24.567Z,17.08
2024-01-20T23:57:53.140Z,16.60
